Time;durP1;ratioP1;P1;durP2;ratioP2;P2;SDS_P1;SDS_P2;PMS_P1;PMS_P2;Temp;Humidity;BMP_temperature;BMP_pressure;BME280_temperature;BME280_humidity;BME280_pressure;Samples;Min_cycle;Max_cycle;Signal;HPM_P1;HPM_P2
2021/12/07 00:00:29;;;;;;;18.55;3.20;;;;;;;4.13;100.00;100541.06;5012862;28;20062;-74
2021/12/07 00:02:55;;;;;;;12.10;3.10;;;;;;;4.25;100.00;100539.03;5014474;28;20088;-74
2021/12/07 00:05:20;;;;;;;15.13;2.80;;;;;;;4.41;100.00;100536.91;5014592;28;20026;-74
2021/12/07 00:07:46;;;;;;;18.65;3.28;;;;;;;4.50;100.00;100542.81;5014847;28;20033;-75
2021/12/07 00:10:13;;;;;;;16.42;2.97;;;;;;;4.50;100.00;100548.06;5013208;28;20524;-75
2021/12/07 00:12:42;;;;;;;11.93;2.50;;;;;;;4.48;100.00;100552.50;5013161;28;20347;-73
2021/12/07 00:15:10;;;;;;;13.38;3.45;;;;;;;4.45;100.00;100558.69;5014390;28;20025;-72
2021/12/07 00:17:35;;;;;;;15.25;2.65;;;;;;;4.43;100.00;100560.47;5014641;28;20076;-73
2021/12/07 00:20:07;;;;;;;15.70;3.20;;;;;;;4.40;99.98;100558.78;5014512;28;20030;-70
2021/12/07 00:22:32;;;;;;;13.90;2.33;;;;;;;4.41;99.65;100576.25;4996066;28;20460;-74
2021/12/07 00:24:57;;;;;;;9.25;2.63;;;;;;;4.40;99.45;100576.28;5001301;28;20052;-73
2021/12/07 00:27:22;;;;;;;15.48;2.88;;;;;;;4.40;98.94;100573.66;5014322;28;20036;-71
2021/12/07 00:29:48;;;;;;;18.00;3.15;;;;;;;4.47;97.96;100574.38;5014256;28;20021;-73
2021/12/07 00:35:49;;;;;;;8.00;2.42;;;;;;;4.40;97.00;100584.16;5014377;28;20077;-73
2021/12/07 00:37:47;;;;;;;7.95;2.25;;;;;;;4.36;97.39;100591.22;4985926;28;20076;-73
2021/12/07 00:40:17;;;;;;;13.35;2.10;;;;;;;4.37;97.62;100597.31;4994242;28;20052;-74
2021/12/07 00:42:42;;;;;;;15.82;2.38;;;;;;;4.39;97.51;100591.13;4995542;28;20061;-73
2021/12/07 00:45:09;;;;;;;10.43;2.42;;;;;;;4.39;97.51;100596.38;5005484;28;20052;-74
2021/12/07 00:47:34;;;;;;;14.98;3.47;;;;;;;4.45;97.41;100608.50;5013873;28;20033;-76
2021/12/07 00:50:00;;;;;;;14.18;2.38;;;;;;;4.48;95.93;100603.19;5013948;28;20422;-76
2021/12/07 00:52:25;;;;;;;8.18;2.40;;;;;;;4.52;96.22;100601.34;5011808;28;20037;-74
2021/12/07 00:54:51;;;;;;;14.05;2.53;;;;;;;4.52;95.00;100612.69;5014017;28;20030;-76
2021/12/07 00:57:16;;;;;;;13.43;2.17;;;;;;;4.46;95.52;100620.69;5013650;28;20049;-76
2021/12/07 00:59:42;;;;;;;13.30;2.72;;;;;;;4.40;96.24;100620.84;5013919;28;20073;-76
2021/12/07 01:02:07;;;;;;;12.98;2.53;;;;;;;4.39;95.93;100625.22;5013756;28;20076;-76
2021/12/07 01:04:33;;;;;;;14.27;2.35;;;;;;;4.32;96.28;100626.25;5011787;28;20083;-76
2021/12/07 01:07:03;;;;;;;8.90;2.58;;;;;;;4.19;96.04;100636.13;5013018;28;20037;-75
2021/12/07 01:25:45;;;;;;;13.27;2.30;;;;;;;4.09;96.86;100664.31;4995068;28;20225;-76
2021/12/07 01:31:01;;;;;;;14.88;2.45;;;;;;;4.13;97.45;100672.09;5013677;28;20033;-75
2021/12/07 01:33:49;;;;;;;18.73;3.13;;;;;;;4.15;96.91;100670.31;5013196;28;20124;-76
2021/12/07 01:36:35;;;;;;;9.77;2.30;;;;;;;4.14;96.63;100677.31;5009374;28;20495;-76
2021/12/07 01:42:53;;;;;;;9.50;2.25;;;;;;;4.14;95.74;100679.94;5013144;28;20052;-75
2021/12/07 01:45:08;;;;;;;17.73;2.63;;;;;;;4.10;95.46;100699.25;5013044;28;20040;-77
2021/12/07 01:58:06;;;;;;;14.05;2.38;;;;;;;4.06;94.72;100716.78;5011543;28;20048;-76
2021/12/07 02:00:37;;;;;;;8.70;2.45;;;;;;;4.09;94.98;100706.25;5012571;28;20049;-77
2021/12/07 02:03:03;;;;;;;14.88;2.42;;;;;;;4.04;94.89;100715.97;5012727;28;20029;-77
2021/12/07 02:05:29;;;;;;;14.73;2.42;;;;;;;4.04;95.37;100720.31;5012771;28;20029;-75
2021/12/07 02:07:54;;;;;;;13.98;2.42;;;;;;;4.02;95.90;100743.94;5011022;28;20034;-77
2021/12/07 02:10:24;;;;;;;14.10;3.35;;;;;;;4.00;96.71;100727.38;5012700;28;20386;-77
2021/12/07 02:12:50;;;;;;;14.15;2.83;;;;;;;4.01;96.04;100731.72;5012550;28;20037;-77
2021/12/07 02:15:23;;;;;;;15.10;2.78;;;;;;;4.02;95.53;100727.38;5012218;28;20030;-76
2021/12/07 02:17:49;;;;;;;11.60;2.50;;;;;;;4.05;95.97;100740.41;5013625;28;20014;-77
2021/12/07 02:20:16;;;;;;;12.02;2.42;;;;;;;4.08;95.28;100735.13;4997065;28;20069;-77
2021/12/07 02:22:42;;;;;;;15.45;2.28;;;;;;;4.10;95.87;100746.41;5006541;28;20022;-77
2021/12/07 02:25:10;;;;;;;13.27;2.40;;;;;;;4.15;94.42;100749.81;5016589;28;20030;-77
2021/12/07 02:27:36;;;;;;;10.27;2.33;;;;;;;4.13;94.59;100750.72;5016619;28;20061;-77
2021/12/07 02:30:04;;;;;;;12.20;2.25;;;;;;;4.07;94.89;100755.19;5014269;28;20022;-76
2021/12/07 02:32:29;;;;;;;9.55;2.20;;;;;;;4.05;95.89;100766.59;4999043;28;20034;-77
2021/12/07 02:34:58;;;;;;;13.23;2.30;;;;;;;4.12;95.94;100764.72;5016820;28;20030;-77
2021/12/07 02:37:29;;;;;;;13.75;2.28;;;;;;;4.10;95.35;100767.38;5016560;28;20033;-76
2021/12/07 02:39:56;;;;;;;14.35;2.42;;;;;;;4.04;95.39;100763.13;5014484;28;20046;-77
2021/12/07 02:42:22;;;;;;;14.80;3.05;;;;;;;3.99;95.90;100764.09;5016359;28;20487;-76
2021/12/07 02:44:48;;;;;;;11.75;2.00;;;;;;;4.01;95.29;100772.78;5015842;28;20054;-75
2021/12/07 02:47:14;;;;;;;9.75;2.33;;;;;;;4.02;95.19;100770.13;5016362;28;20032;-77
2021/12/07 02:49:39;;;;;;;13.25;2.10;;;;;;;4.01;95.98;100780.66;5014659;28;20105;-77
2021/12/07 02:52:06;;;;;;;13.45;2.40;;;;;;;4.02;96.35;100777.16;5016097;28;20057;-77
2021/12/07 02:54:33;;;;;;;13.50;2.47;;;;;;;4.04;96.18;100775.34;5011035;28;20496;-77
2021/12/07 02:56:59;;;;;;;10.77;2.40;;;;;;;4.13;95.72;100775.19;5015969;28;20390;-76
2021/12/07 02:59:26;;;;;;;10.32;2.20;;;;;;;4.23;95.49;100794.22;5016049;28;20022;-76
2021/12/07 03:02:00;;;;;;;10.75;2.30;;;;;;;4.27;94.28;100785.38;5014466;28;20022;-75
2021/12/07 03:04:32;;;;;;;14.10;2.30;;;;;;;4.22;95.01;100780.25;5015951;28;20077;-78
2021/12/07 03:28:52;;;;;;;14.68;2.33;;;;;;;4.35;96.78;100824.56;4965889;28;20042;-71
2021/12/07 03:31:20;;;;;;;13.55;2.53;;;;;;;4.37;96.97;100834.16;4974183;28;20109;-77
2021/12/07 03:33:46;;;;;;;11.57;2.55;;;;;;;4.40;97.40;100826.22;4965637;28;20118;-78
2021/12/07 03:36:12;;;;;;;14.35;2.95;;;;;;;4.45;96.00;100825.25;4974143;28;20125;-76
2021/12/07 03:38:39;;;;;;;13.48;2.53;;;;;;;4.49;96.92;100840.03;4973719;28;20043;-77
2021/12/07 03:41:05;;;;;;;12.05;2.30;;;;;;;4.51;96.03;100830.38;4988566;28;20058;-78
2021/12/07 03:43:31;;;;;;;11.65;2.15;;;;;;;4.47;95.13;100841.84;4991811;28;20061;-78
2021/12/07 03:45:57;;;;;;;12.82;2.38;;;;;;;4.46;94.96;100838.31;4993650;28;20072;-78
2021/12/07 03:48:22;;;;;;;9.85;2.30;;;;;;;4.39;95.64;100837.59;4993111;28;20030;-77
2021/12/07 03:50:48;;;;;;;16.20;2.30;;;;;;;4.32;95.66;100838.59;4993125;28;20088;-79
2021/12/07 03:53:14;;;;;;;13.02;2.33;;;;;;;4.29;95.49;100840.44;4993213;28;20571;-75
2021/12/07 03:55:40;;;;;;;11.52;1.80;;;;;;;4.29;95.97;100832.56;4977562;28;20074;-78
2021/12/07 03:58:05;;;;;;;8.10;2.10;;;;;;;4.35;95.40;100841.16;4973769;28;20399;-78
2021/12/07 04:00:34;;;;;;;11.45;2.38;;;;;;;4.42;94.37;100841.91;4989527;28;20035;-78
2021/12/07 04:03:03;;;;;;;11.73;2.30;;;;;;;4.39;93.64;100842.84;4993817;28;20042;-78
2021/12/07 04:05:29;;;;;;;7.88;1.88;;;;;;;4.31;93.69;100836.00;4992881;28;20042;-78
2021/12/07 04:07:55;;;;;;;12.43;2.28;;;;;;;4.26;93.71;100847.44;5013848;28;20367;-78
2021/12/07 04:10:22;;;;;;;11.80;2.38;;;;;;;4.18;94.15;100862.47;5014027;28;20049;-76
2021/12/07 04:12:48;;;;;;;11.10;2.03;;;;;;;4.20;94.36;100846.69;5014550;28;20130;-77
2021/12/07 04:15:17;;;;;;;11.35;2.15;;;;;;;4.17;94.21;100849.34;5012932;28;20018;-67
2021/12/07 04:17:43;;;;;;;7.30;1.90;;;;;;;4.16;95.03;100864.25;5014612;28;20029;-78
2021/12/07 04:20:12;;;;;;;5.97;2.03;;;;;;;4.23;95.06;100864.97;5014176;28;20030;-77
2021/12/07 04:22:38;;;;;;;9.32;2.38;;;;;;;4.24;94.57;100849.22;5014328;28;20029;-78
2021/12/07 04:25:07;;;;;;;13.32;2.30;;;;;;;4.21;94.26;100864.16;5013219;28;20103;-78
2021/12/07 04:27:37;;;;;;;7.90;2.22;;;;;;;4.21;94.32;100858.91;4994435;28;20030;-78
2021/12/07 04:30:04;;;;;;;10.88;2.13;;;;;;;4.15;94.05;100861.66;4994967;28;20014;-79
2021/12/07 04:32:30;;;;;;;10.15;1.85;;;;;;;4.08;94.16;100869.63;5010110;28;20033;-78
2021/12/07 04:34:55;;;;;;;12.45;2.10;;;;;;;3.98;94.25;100877.63;5014378;28;20489;-74
2021/12/07 04:37:20;;;;;;;11.02;2.08;;;;;;;3.87;95.02;100869.97;5000243;28;20038;-79
2021/12/07 04:39:46;;;;;;;11.20;2.88;;;;;;;3.75;94.93;100876.28;4993975;28;20050;-73
2021/12/07 04:42:11;;;;;;;9.10;2.45;;;;;;;3.69;95.81;100872.00;5001889;28;20109;-78
2021/12/07 04:44:43;;;;;;;10.95;2.35;;;;;;;3.67;96.45;100873.78;5014164;28;20447;-78
2021/12/07 04:47:20;;;;;;;11.35;2.13;;;;;;;3.70;97.52;100870.25;5007695;28;20475;-78
2021/12/07 04:50:38;;;;;;;13.23;2.15;;;;;;;3.67;97.17;100873.78;4994347;28;20567;-78
2021/12/07 04:58:02;;;;;;;11.80;2.40;;;;;;;3.51;96.95;100877.53;5012349;28;20044;-77
2021/12/07 05:00:28;;;;;;;7.47;2.00;;;;;;;3.40;97.09;100875.06;5013965;28;20022;-74
2021/12/07 05:02:58;;;;;;;11.25;2.50;;;;;;;3.34;97.84;100878.63;5014316;28;20084;-79
2021/12/07 05:05:29;;;;;;;6.82;2.03;;;;;;;3.27;98.06;100874.38;5014350;28;20045;-75
2021/12/07 05:07:57;;;;;;;8.95;2.00;;;;;;;3.23;98.58;100894.47;5012950;28;20041;-74
2021/12/07 05:10:30;;;;;;;11.63;2.35;;;;;;;3.23;98.85;100888.38;5014346;28;20025;-72
2021/12/07 05:39:48;;;;;;;8.05;2.30;;;;;;;3.47;96.29;100951.78;4982687;28;20050;-77
2021/12/07 05:42:14;;;;;;;9.50;2.40;;;;;;;3.42;95.83;100939.59;4953237;29;20467;-77
2021/12/07 05:44:39;;;;;;;16.63;3.45;;;;;;;3.38;96.25;100953.63;4952879;29;20036;-70
2021/12/07 05:47:06;;;;;;;9.00;2.25;;;;;;;3.36;96.50;100949.28;4953434;29;20588;-76
2021/12/07 05:49:31;;;;;;;9.70;2.50;;;;;;;3.31;96.69;100951.09;4953594;28;20070;-78
2021/12/07 05:51:57;;;;;;;9.20;2.38;;;;;;;3.24;96.55;100951.16;4953806;29;20078;-75
2021/12/07 05:54:22;;;;;;;9.23;2.33;;;;;;;3.13;96.62;100939.97;4953374;29;20554;-76
2021/12/07 05:56:48;;;;;;;8.40;1.80;;;;;;;3.17;97.20;100935.56;4952749;29;20042;-74
2021/12/07 05:59:14;;;;;;;10.55;2.55;;;;;;;3.06;96.64;100933.09;4969831;28;20023;-75
2021/12/07 06:01:39;;;;;;;10.63;3.13;;;;;;;3.00;97.07;100927.94;4979383;28;20475;-75
2021/12/07 06:04:05;;;;;;;12.90;2.42;;;;;;;2.94;97.57;100924.50;4990663;28;20030;-77
2021/12/07 06:06:30;;;;;;;11.00;2.60;;;;;;;2.88;97.45;100932.44;4993898;28;20080;-77
2021/12/07 06:08:55;;;;;;;10.70;3.17;;;;;;;2.82;97.54;100936.88;4991396;28;20501;-72
2021/12/07 06:11:23;;;;;;;14.02;2.80;;;;;;;2.81;98.10;100941.22;4993055;28;20034;-76
2021/12/07 06:13:49;;;;;;;10.13;2.78;;;;;;;2.73;98.06;100937.84;4990912;28;20027;-76
2021/12/07 06:16:16;;;;;;;10.25;2.88;;;;;;;2.72;98.51;100941.31;4992829;28;20529;-74
2021/12/07 06:18:42;;;;;;;8.48;2.60;;;;;;;2.71;98.95;100943.09;4993087;28;20032;-76
2021/12/07 06:21:07;;;;;;;12.07;2.97;;;;;;;2.67;99.06;100941.34;4993105;28;20101;-75
2021/12/07 06:23:33;;;;;;;10.02;2.72;;;;;;;2.61;98.72;100939.69;4990976;28;20053;-74
2021/12/07 06:25:59;;;;;;;11.48;2.47;;;;;;;2.58;99.53;100928.38;4993829;28;20034;-74
2021/12/07 06:28:25;;;;;;;9.10;2.40;;;;;;;2.54;99.04;100938.00;4992777;28;20019;-75
2021/12/07 06:30:50;;;;;;;12.15;2.80;;;;;;;2.53;99.28;100943.25;4992673;28;20049;-77
2021/12/07 06:33:19;;;;;;;11.18;3.05;;;;;;;2.49;99.25;100931.97;4991530;28;20057;-77
2021/12/07 06:35:46;;;;;;;11.27;2.78;;;;;;;2.46;99.54;100945.94;4985387;28;20045;-77
2021/12/07 06:38:11;;;;;;;8.85;2.97;;;;;;;2.40;99.90;100945.13;4992425;28;20478;-77
2021/12/07 06:40:36;;;;;;;13.43;3.00;;;;;;;2.36;99.71;100948.66;4982598;28;20046;-77
2021/12/07 06:43:03;;;;;;;13.75;2.70;;;;;;;2.37;99.92;100942.56;5010529;28;20034;-76
2021/12/07 06:45:29;;;;;;;11.90;3.00;;;;;;;2.43;100.00;100952.91;5010796;28;20030;-75
2021/12/07 06:47:56;;;;;;;10.75;2.65;;;;;;;2.46;100.00;100948.53;5012608;28;20032;-77
2021/12/07 06:50:21;;;;;;;12.70;3.05;;;;;;;2.50;99.84;100949.38;5012354;28;20055;-78
2021/12/07 06:52:46;;;;;;;10.23;2.97;;;;;;;2.50;99.55;100948.53;5012064;28;20037;-75
2021/12/07 06:55:12;;;;;;;12.98;2.75;;;;;;;2.52;100.00;100946.75;5010316;28;20029;-77
2021/12/07 06:57:37;;;;;;;11.18;2.97;;;;;;;2.55;100.00;100941.50;5011536;28;20500;-78
2021/12/07 07:00:12;;;;;;;15.60;3.00;;;;;;;2.58;99.20;100946.69;5009012;28;20026;-77
2021/12/07 07:02:37;;;;;;;11.00;2.70;;;;;;;2.55;99.57;100944.13;5008168;28;20437;-78
2021/12/07 07:05:04;;;;;;;9.93;2.97;;;;;;;2.55;99.17;100947.59;5007808;28;20041;-76
2021/12/07 07:07:29;;;;;;;12.63;3.05;;;;;;;2.60;99.68;100952.78;5012901;28;20029;-77
2021/12/07 07:09:55;;;;;;;12.80;3.30;;;;;;;2.60;99.38;100945.78;5015424;28;20030;-75
2021/12/07 07:12:20;;;;;;;10.95;4.60;;;;;;;2.58;98.47;100954.53;5015222;28;20125;-72
2021/12/07 07:14:47;;;;;;;9.77;2.90;;;;;;;2.56;98.73;100957.16;5014780;28;20026;-71
2021/12/07 07:17:13;;;;;;;8.50;2.88;;;;;;;2.56;99.30;100953.69;5005546;28;20034;-70
2021/12/07 07:19:38;;;;;;;9.45;3.40;;;;;;;2.60;99.96;100953.63;5015300;28;20021;-72
2021/12/07 07:22:04;;;;;;;9.80;3.33;;;;;;;2.66;99.02;100957.06;5015242;28;20340;-68
2021/12/07 07:24:30;;;;;;;12.65;3.90;;;;;;;2.65;99.28;100943.13;5016109;28;20037;-78
2021/12/07 07:26:56;;;;;;;11.30;2.95;;;;;;;2.66;98.77;100946.63;5008327;28;20034;-73
2021/12/07 07:29:21;;;;;;;11.98;3.00;;;;;;;2.64;99.03;100932.72;4996213;28;20058;-75
2021/12/07 07:31:47;;;;;;;10.88;3.30;;;;;;;2.62;98.51;100927.47;4995340;28;20038;-78
2021/12/07 07:34:12;;;;;;;15.18;3.42;;;;;;;2.60;98.90;100929.25;4995798;28;20034;-75
2021/12/07 07:36:37;;;;;;;13.68;3.20;;;;;;;2.58;99.01;100920.53;5003510;28;20077;-67
2021/12/07 07:39:03;;;;;;;9.38;2.80;;;;;;;2.57;98.37;100924.91;5014079;28;20513;-76
2021/12/07 07:41:29;;;;;;;14.55;3.78;;;;;;;2.55;98.82;100933.66;5014754;28;20402;-79
2021/12/07 07:43:54;;;;;;;14.15;3.30;;;;;;;2.57;99.74;100918.81;5009012;28;20029;-75
2021/12/07 07:46:20;;;;;;;13.07;3.63;;;;;;;2.59;99.06;100920.53;5001990;28;20200;-74
2021/12/07 07:48:45;;;;;;;13.00;3.17;;;;;;;2.62;99.86;100924.84;5007400;28;20065;-73
2021/12/07 07:51:11;;;;;;;11.55;3.72;;;;;;;2.67;99.91;100916.97;5017505;28;20057;-70
2021/12/07 07:53:36;;;;;;;15.25;4.20;;;;;;;2.72;99.74;100917.78;5007144;28;20049;-70
2021/12/07 07:56:02;;;;;;;12.88;3.50;;;;;;;2.83;99.77;100934.22;4999148;28;20034;-71
2021/12/07 07:58:28;;;;;;;27.45;4.38;;;;;;;2.96;99.47;100932.34;5018991;28;20034;-74
2021/12/07 08:00:54;;;;;;;11.45;3.55;;;;;;;3.03;98.83;100936.63;4997036;28;20032;-74
2021/12/07 08:03:19;;;;;;;16.33;3.92;;;;;;;3.08;98.53;100932.19;4997190;28;20033;-75
2021/12/07 08:05:45;;;;;;;17.73;3.47;;;;;;;3.13;98.01;100936.50;4997180;28;20038;-71
2021/12/07 08:08:10;;;;;;;16.42;3.50;;;;;;;3.18;97.97;100937.31;4996914;28;20033;-77
2021/12/07 08:10:35;;;;;;;15.02;3.60;;;;;;;3.19;97.17;100937.28;5009641;28;20029;-71
2021/12/07 08:13:05;;;;;;;14.02;3.80;;;;;;;3.19;97.30;100939.91;5003829;28;20375;-74
2021/12/07 08:15:32;;;;;;;9.10;3.20;;;;;;;3.16;96.99;100924.25;5007756;28;20029;-66
2021/12/07 08:17:57;;;;;;;12.68;3.70;;;;;;;3.16;97.21;100939.06;5009653;28;20457;-74
2021/12/07 08:20:23;;;;;;;11.93;3.50;;;;;;;3.16;97.19;100934.72;5016427;28;20022;-73
2021/12/07 08:22:49;;;;;;;11.68;3.42;;;;;;;3.20;96.94;100936.41;5017320;28;20032;-72
2021/12/07 08:25:15;;;;;;;14.05;3.38;;;;;;;3.22;96.86;100936.38;5015452;28;20130;-76
2021/12/07 08:27:40;;;;;;;13.95;3.47;;;;;;;3.24;96.65;100937.22;5016382;28;20466;-70
2021/12/07 08:30:09;;;;;;;16.58;3.65;;;;;;;3.33;96.77;100938.88;5017556;28;20032;-72
2021/12/07 08:32:34;;;;;;;14.70;3.45;;;;;;;3.45;96.69;100933.44;5015982;28;20116;-72
2021/12/07 08:35:00;;;;;;;8.60;3.80;;;;;;;3.56;96.07;100944.63;5015584;28;20101;-72
2021/12/07 08:37:25;;;;;;;13.30;3.15;;;;;;;3.71;95.86;100942.69;5013797;28;20474;-71
2021/12/07 08:39:51;;;;;;;15.40;3.95;;;;;;;3.85;95.21;100940.75;5008060;28;20034;-70
2021/12/07 08:42:17;;;;;;;9.82;3.00;;;;;;;3.97;95.04;100933.59;5010134;28;20085;-73
2021/12/07 08:44:43;;;;;;;12.07;3.70;;;;;;;4.12;94.36;100938.56;5003131;28;20077;-73
2021/12/07 08:47:08;;;;;;;14.77;2.90;;;;;;;4.17;93.58;100925.38;5011471;28;20505;-77
2021/12/07 08:49:34;;;;;;;15.35;3.40;;;;;;;4.24;92.83;100921.75;5002535;28;20034;-72
2021/12/07 08:51:59;;;;;;;8.95;3.03;;;;;;;4.22;92.94;100932.28;4994787;28;20136;-72
2021/12/07 08:59:36;;;;;;;15.05;3.83;;;;;;;4.20;93.53;100933.19;5002714;28;20489;-77
2021/12/07 08:59:57;;;;;;;27.48;4.88;;;;;;;4.21;94.20;100937.56;5007555;28;20081;-77
2021/12/07 09:02:26;;;;;;;14.43;3.08;;;;;;;4.35;94.08;100925.06;5011613;28;20486;-77
2021/12/07 09:04:53;;;;;;;8.07;2.72;;;;;;;4.45;93.25;100936.28;5013672;28;20520;-76
2021/12/07 09:07:20;;;;;;;13.15;3.80;;;;;;;4.50;92.41;100928.28;5014348;28;20033;-77
2021/12/07 09:09:46;;;;;;;10.40;2.45;;;;;;;4.55;92.17;100922.09;5008576;28;20022;-77
2021/12/07 09:12:13;;;;;;;11.18;3.03;;;;;;;4.54;91.99;100929.97;5010698;28;20049;-74
2021/12/07 09:14:39;;;;;;;13.07;2.83;;;;;;;4.66;91.88;100929.75;5012181;28;20037;-76
2021/12/07 09:17:05;;;;;;;10.30;2.78;;;;;;;4.79;91.44;100924.28;5007424;28;20022;-70
2021/12/07 09:19:32;;;;;;;9.18;2.85;;;;;;;4.99;91.55;100927.38;5011791;28;20037;-69
2021/12/07 09:21:57;;;;;;;8.98;2.90;;;;;;;5.18;88.78;100934.84;5012723;28;20034;-71
2021/12/07 09:24:23;;;;;;;11.85;3.22;;;;;;;5.44;89.87;100921.16;5014085;28;20029;-75
2021/12/07 09:26:50;;;;;;;15.75;3.03;;;;;;;5.90;87.34;100917.47;5011586;28;20053;-74
2021/12/07 09:29:15;;;;;;;10.30;2.50;;;;;;;6.59;83.76;100916.66;5004985;28;20034;-75
2021/12/07 09:31:41;;;;;;;14.43;3.47;;;;;;;7.29;80.13;100925.22;5005907;28;20025;-76
2021/12/07 09:34:07;;;;;;;11.45;2.70;;;;;;;7.73;77.31;100915.06;5005630;28;20037;-72
2021/12/07 09:36:34;;;;;;;13.38;3.33;;;;;;;8.30;74.74;100914.97;5005454;28;20022;-76
2021/12/07 09:39:00;;;;;;;15.27;3.30;;;;;;;8.72;73.72;100914.44;5008554;28;20054;-75
2021/12/07 09:41:26;;;;;;;14.02;3.00;;;;;;;9.33;71.48;100934.22;5010152;28;20461;-77
2021/12/07 09:43:53;;;;;;;11.20;3.38;;;;;;;9.51;69.26;100932.63;5012974;28;20488;-77
2021/12/07 09:46:19;;;;;;;17.27;4.25;;;;;;;9.87;67.83;100933.88;5006030;28;20462;-77
2021/12/07 09:48:47;;;;;;;13.68;3.10;;;;;;;9.99;66.64;100931.59;5011554;28;20034;-76
2021/12/07 09:51:16;;;;;;;13.23;3.50;;;;;;;10.13;67.02;100927.53;5011757;28;20033;-75
2021/12/07 09:53:43;;;;;;;13.23;3.70;;;;;;;10.49;64.81;100943.66;5008341;28;20061;-73
2021/12/07 09:56:09;;;;;;;12.70;3.40;;;;;;;10.57;63.22;100943.34;5032236;28;20041;-75
2021/12/07 09:58:36;;;;;;;19.98;3.85;;;;;;;10.67;64.23;100945.59;5017621;28;20389;-69
2021/12/07 10:01:02;;;;;;;11.77;3.72;;;;;;;10.72;62.45;100941.81;5013223;28;20026;-75
2021/12/07 10:03:28;;;;;;;13.23;3.40;;;;;;;10.82;63.10;100942.28;5012385;28;20053;-73
2021/12/07 10:05:53;;;;;;;14.93;4.10;;;;;;;10.77;62.09;100933.69;5012902;28;20417;-75
2021/12/07 10:08:19;;;;;;;11.23;3.38;;;;;;;10.89;61.47;100938.41;5012902;28;20461;-73
2021/12/07 10:10:47;;;;;;;13.23;3.53;;;;;;;11.03;62.43;100937.81;5012275;28;20104;-72
2021/12/07 10:13:15;;;;;;;13.45;3.25;;;;;;;10.83;61.34;100930.75;5012590;28;20091;-73
2021/12/07 10:15:41;;;;;;;11.90;3.53;;;;;;;10.89;62.08;100925.16;5011716;28;20042;-74
2021/12/07 10:18:22;;;;;;;12.70;3.10;;;;;;;10.79;61.61;100915.91;4999013;28;20077;-70
2021/12/07 10:20:51;;;;;;;10.73;3.13;;;;;;;10.72;62.31;100917.13;5012525;28;20072;-74
2021/12/07 10:23:17;;;;;;;10.93;3.08;;;;;;;10.84;60.13;100903.31;5012780;28;20492;-74
2021/12/07 10:25:59;;;;;;;10.88;3.45;;;;;;;10.80;61.05;100896.44;4997942;28;20026;-75
2021/12/07 10:28:36;;;;;;;14.70;3.63;;;;;;;11.11;60.36;100876.50;4998761;28;20045;-74
2021/12/07 10:31:30;;;;;;;11.82;3.53;;;;;;;11.00;59.30;100884.94;5008850;28;20071;-74
2021/12/07 10:34:03;;;;;;;13.60;3.60;;;;;;;10.98;60.67;100879.72;5002731;28;20034;-74
2021/12/07 10:36:39;;;;;;;10.93;3.10;;;;;;;11.36;59.60;100868.25;4994788;28;20483;-75
2021/12/07 10:39:15;;;;;;;10.43;3.00;;;;;;;11.85;58.49;100856.19;5012858;28;20109;-72
2021/12/07 10:41:52;;;;;;;11.32;3.00;;;;;;;12.08;56.30;100855.91;5014375;28;20053;-75
2021/12/07 10:44:38;;;;;;;11.15;3.50;;;;;;;11.40;57.62;100859.22;5014558;28;20026;-74
2021/12/07 10:47:05;;;;;;;11.05;3.50;;;;;;;10.77;59.77;100854.22;4991379;28;20091;-71
2021/12/07 10:49:44;;;;;;;14.30;4.03;;;;;;;10.38;61.33;100855.06;4998437;28;20029;-74
2021/12/07 10:52:21;;;;;;;11.13;3.20;;;;;;;9.70;63.31;100849.97;5008968;28;20477;-74
2021/12/07 10:54:58;;;;;;;12.50;3.92;;;;;;;9.65;64.72;100842.19;5015225;28;20022;-74
2021/12/07 10:57:28;;;;;;;15.55;4.05;;;;;;;8.95;65.63;100851.97;5014528;28;20113;-74
2021/12/07 11:00:20;;;;;;;16.05;4.72;;;;;;;8.24;68.53;100850.09;5003831;28;20121;-73
2021/12/07 11:02:50;;;;;;;15.40;4.47;;;;;;;8.02;70.13;100866.66;5002694;28;20401;-72
2021/12/07 11:05:23;;;;;;;17.23;4.78;;;;;;;7.93;70.83;100864.34;5016200;28;20030;-74
2021/12/07 11:07:50;;;;;;;17.70;4.85;;;;;;;7.67;71.44;100862.56;5000212;28;20022;-73
2021/12/07 11:10:30;;;;;;;17.08;5.05;;;;;;;7.41;72.08;100845.81;4995790;28;20470;-74
2021/12/07 11:13:10;;;;;;;15.00;4.43;;;;;;;7.19;73.84;100843.84;4998611;28;20089;-74
2021/12/07 11:15:50;;;;;;;17.70;4.20;;;;;;;7.20;73.52;100842.09;4998850;28;20117;-72
2021/12/07 11:18:17;;;;;;;19.92;4.63;;;;;;;6.97;74.29;100837.50;5009281;28;20013;-73
2021/12/07 11:20:43;;;;;;;14.93;4.47;;;;;;;6.80;75.03;100844.09;5015694;28;20121;-75
2021/12/07 11:23:16;;;;;;;19.55;5.07;;;;;;;6.59;75.29;100828.97;5015675;28;20100;-74
2021/12/07 11:31:59;;;;;;;19.92;4.55;;;;;;;7.06;75.15;100821.44;5011324;28;20040;-75
2021/12/07 11:34:27;;;;;;;17.13;4.63;;;;;;;7.65;71.07;100817.81;5013834;28;20034;-74
2021/12/07 11:37:03;;;;;;;18.92;4.97;;;;;;;7.63;71.38;100798.53;5010479;28;20045;-74
2021/12/07 11:39:31;;;;;;;25.85;5.10;;;;;;;7.28;71.83;100792.66;5014416;28;20425;-75
2021/12/07 11:42:05;;;;;;;17.83;4.78;;;;;;;7.13;73.49;100795.78;5009914;28;20050;-75
2021/12/07 11:44:32;;;;;;;16.10;5.00;;;;;;;7.31;74.68;100781.16;4996965;28;20477;-75
2021/12/07 11:47:00;;;;;;;22.35;5.13;;;;;;;7.23;72.25;100770.88;5003532;28;20072;-74
2021/12/07 11:49:28;;;;;;;19.00;5.20;;;;;;;7.24;72.10;100769.09;5011862;28;20037;-74
2021/12/07 11:51:57;;;;;;;19.52;5.70;;;;;;;7.14;72.35;100779.06;5014689;28;20030;-74
2021/12/07 11:54:25;;;;;;;25.20;6.22;;;;;;;7.40;71.62;100766.81;5014229;28;20026;-76
2021/12/07 11:56:52;;;;;;;23.45;6.00;;;;;;;7.56;71.10;100749.59;5014627;28;20026;-75
2021/12/07 11:59:18;;;;;;;32.78;6.53;;;;;;;7.70;70.54;100730.69;5015155;28;20172;-75
2021/12/07 12:01:47;;;;;;;30.33;6.72;;;;;;;7.84;69.99;100727.56;5015035;28;20481;-76
2021/12/07 12:04:14;;;;;;;27.63;6.22;;;;;;;7.92;69.00;100714.09;5011378;28;20018;-76
2021/12/07 12:06:42;;;;;;;19.92;6.07;;;;;;;8.04;69.34;100705.75;5014382;28;20022;-76
2021/12/07 12:09:08;;;;;;;20.77;5.53;;;;;;;8.02;67.80;100697.03;5014080;28;20104;-73
2021/12/07 12:11:51;;;;;;;21.15;5.70;;;;;;;8.09;69.35;100708.22;5014477;28;20029;-76
2021/12/07 12:14:47;;;;;;;15.57;3.97;;;;;;;7.92;67.66;100701.78;5004410;28;20434;-76
2021/12/07 12:17:34;;;;;;;11.38;3.78;;;;;;;8.02;68.38;100692.63;5003252;28;20088;-76
2021/12/07 12:20:05;;;;;;;11.90;3.28;;;;;;;7.93;67.47;100685.03;5014290;28;20030;-75
2021/12/07 12:22:49;;;;;;;14.07;3.05;;;;;;;7.76;68.32;100687.41;5014363;28;20037;-75
2021/12/07 12:25:18;;;;;;;12.32;3.13;;;;;;;7.69;68.29;100682.34;5013554;28;20072;-75
2021/12/07 12:27:46;;;;;;;13.00;3.08;;;;;;;7.58;68.64;100673.97;5014606;28;20049;-76
2021/12/07 12:30:15;;;;;;;8.68;2.75;;;;;;;7.42;69.47;100683.31;5014149;28;20033;-76
2021/12/07 12:32:43;;;;;;;12.63;2.95;;;;;;;7.42;69.64;100671.03;5013963;28;20072;-74
2021/12/07 12:35:11;;;;;;;12.60;3.42;;;;;;;7.45;70.92;100664.78;4993801;28;20383;-73
2021/12/07 12:37:37;;;;;;;10.10;3.95;;;;;;;7.27;71.45;100661.00;5013837;28;20045;-74
2021/12/07 12:40:08;;;;;;;12.40;4.55;;;;;;;6.99;73.18;100654.88;5013459;28;20033;-75
2021/12/07 12:42:38;;;;;;;13.93;4.38;;;;;;;6.84;73.25;100640.47;5013312;28;20042;-76
2021/12/07 12:45:09;;;;;;;11.05;4.05;;;;;;;6.70;74.26;100619.84;5013181;28;20107;-77
2021/12/07 12:47:38;;;;;;;13.65;3.85;;;;;;;6.55;73.69;100594.88;5005700;28;20029;-72
2021/12/07 12:50:27;;;;;;;11.70;3.47;;;;;;;6.44;74.08;100622.44;5013307;28;20037;-75
2021/12/07 12:53:06;;;;;;;11.85;3.40;;;;;;;6.32;74.26;100611.41;4993969;28;20034;-76
2021/12/07 12:55:54;;;;;;;12.13;3.50;;;;;;;6.15;75.51;100590.00;5004794;28;20057;-75
2021/12/07 12:58:39;;;;;;;12.02;3.20;;;;;;;5.99;76.25;100597.50;5010598;28;20466;-74
2021/12/07 13:01:26;;;;;;;10.93;3.13;;;;;;;5.93;75.96;100577.47;5012470;28;20026;-76
2021/12/07 13:04:00;;;;;;;12.65;4.10;;;;;;;5.87;76.70;100581.16;4989612;28;20489;-77
2021/12/07 13:06:32;;;;;;;13.77;3.95;;;;;;;5.84;77.08;100570.72;5011709;28;20025;-77
2021/12/07 13:09:21;;;;;;;12.02;3.42;;;;;;;5.78;78.01;100575.31;5012774;28;20029;-74